sensor_id;sensor_type;location;lat;lon;timestamp;P1;durP1;ratioP1;P2;durP2;ratioP2
46719;SDS011;32452;51.382;-0.002;2022-12-29T00:00:28;20.48;;;4.28;;
46719;SDS011;32452;51.382;-0.002;2022-12-29T00:03:14;20.58;;;3.20;;
46719;SDS011;32452;51.382;-0.002;2022-12-29T00:06:01;24.33;;;4.40;;
46719;SDS011;32452;51.382;-0.002;2022-12-29T00:08:47;25.02;;;4.90;;
46719;SDS011;32452;51.382;-0.002;2022-12-29T00:11:33;24.27;;;3.55;;
46719;SDS011;32452;51.382;-0.002;2022-12-29T00:14:19;21.67;;;3.53;;
46719;SDS011;32452;51.382;-0.002;2022-12-29T00:20:08;22.05;;;3.55;;
46719;SDS011;32452;51.382;-0.002;2022-12-29T00:23:13;12.75;;;3.35;;
46719;SDS011;32452;51.382;-0.002;2022-12-29T00:27:07;22.95;;;4.10;;
46719;SDS011;32452;51.382;-0.002;2022-12-29T00:30:19;21.20;;;3.90;;
46719;SDS011;32452;51.382;-0.002;2022-12-29T00:33:31;26.95;;;3.85;;
46719;SDS011;32452;51.382;-0.002;2022-12-29T00:36:38;23.35;;;3.60;;
46719;SDS011;32452;51.382;-0.002;2022-12-29T00:39:25;25.60;;;3.67;;
46719;SDS011;32452;51.382;-0.002;2022-12-29T00:42:29;20.95;;;3.78;;
46719;SDS011;32452;51.382;-0.002;2022-12-29T00:45:33;20.23;;;3.63;;
46719;SDS011;32452;51.382;-0.002;2022-12-29T00:48:19;19.52;;;3.05;;
46719;SDS011;32452;51.382;-0.002;2022-12-29T00:51:25;29.60;;;3.95;;
46719;SDS011;32452;51.382;-0.002;2022-12-29T00:54:11;18.30;;;3.10;;
46719;SDS011;32452;51.382;-0.002;2022-12-29T00:56:58;19.98;;;4.05;;
46719;SDS011;32452;51.382;-0.002;2022-12-29T00:59:44;23.38;;;4.50;;
46719;SDS011;32452;51.382;-0.002;2022-12-29T01:02:30;19.85;;;3.58;;
46719;SDS011;32452;51.382;-0.002;2022-12-29T01:05:16;21.30;;;4.32;;
46719;SDS011;32452;51.382;-0.002;2022-12-29T01:08:01;20.52;;;3.83;;
46719;SDS011;32452;51.382;-0.002;2022-12-29T01:10:57;22.70;;;4.47;;
46719;SDS011;32452;51.382;-0.002;2022-12-29T01:13:47;22.42;;;4.03;;
46719;SDS011;32452;51.382;-0.002;2022-12-29T01:16:32;22.88;;;3.88;;
46719;SDS011;32452;51.382;-0.002;2022-12-29T01:19:18;30.40;;;4.70;;
46719;SDS011;32452;51.382;-0.002;2022-12-29T01:22:04;22.92;;;3.88;;
46719;SDS011;32452;51.382;-0.002;2022-12-29T01:24:51;20.23;;;5.45;;
46719;SDS011;32452;51.382;-0.002;2022-12-29T01:27:36;21.13;;;3.05;;
46719;SDS011;32452;51.382;-0.002;2022-12-29T01:30:22;27.95;;;5.03;;
46719;SDS011;32452;51.382;-0.002;2022-12-29T01:33:08;21.85;;;3.97;;
46719;SDS011;32452;51.382;-0.002;2022-12-29T01:35:53;22.25;;;3.90;;
46719;SDS011;32452;51.382;-0.002;2022-12-29T01:38:44;23.15;;;5.38;;
46719;SDS011;32452;51.382;-0.002;2022-12-29T01:41:30;20.58;;;3.83;;
46719;SDS011;32452;51.382;-0.002;2022-12-29T01:50:38;28.20;;;3.53;;
46719;SDS011;32452;51.382;-0.002;2022-12-29T01:53:26;29.50;;;6.50;;
46719;SDS011;32452;51.382;-0.002;2022-12-29T01:56:15;16.02;;;3.92;;
46719;SDS011;32452;51.382;-0.002;2022-12-29T01:59:04;17.67;;;3.50;;
46719;SDS011;32452;51.382;-0.002;2022-12-29T02:01:54;19.63;;;3.13;;
46719;SDS011;32452;51.382;-0.002;2022-12-29T02:04:40;23.27;;;3.42;;
46719;SDS011;32452;51.382;-0.002;2022-12-29T02:07:29;22.17;;;4.70;;
46719;SDS011;32452;51.382;-0.002;2022-12-29T02:10:14;20.90;;;5.25;;
46719;SDS011;32452;51.382;-0.002;2022-12-29T02:13:00;19.25;;;3.50;;
46719;SDS011;32452;51.382;-0.002;2022-12-29T02:19:08;22.17;;;3.63;;
46719;SDS011;32452;51.382;-0.002;2022-12-29T02:40:06;20.08;;;4.30;;
46719;SDS011;32452;51.382;-0.002;2022-12-29T02:52:16;31.52;;;4.63;;
46719;SDS011;32452;51.382;-0.002;2022-12-29T02:55:07;41.55;;;7.03;;
46719;SDS011;32452;51.382;-0.002;2022-12-29T02:58:29;32.95;;;6.22;;
46719;SDS011;32452;51.382;-0.002;2022-12-29T03:10:18;36.08;;;6.05;;
46719;SDS011;32452;51.382;-0.002;2022-12-29T03:13:13;23.63;;;6.70;;
46719;SDS011;32452;51.382;-0.002;2022-12-29T03:16:36;21.05;;;4.60;;
46719;SDS011;32452;51.382;-0.002;2022-12-29T03:19:32;30.10;;;5.43;;
46719;SDS011;32452;51.382;-0.002;2022-12-29T03:22:24;27.90;;;5.50;;
46719;SDS011;32452;51.382;-0.002;2022-12-29T03:25:29;25.83;;;4.60;;
46719;SDS011;32452;51.382;-0.002;2022-12-29T03:28:24;28.02;;;4.55;;
46719;SDS011;32452;51.382;-0.002;2022-12-29T03:31:13;28.13;;;5.72;;
46719;SDS011;32452;51.382;-0.002;2022-12-29T03:34:01;25.65;;;4.68;;
46719;SDS011;32452;51.382;-0.002;2022-12-29T03:36:50;25.60;;;5.47;;
46719;SDS011;32452;51.382;-0.002;2022-12-29T03:39:37;25.45;;;5.32;;
46719;SDS011;32452;51.382;-0.002;2022-12-29T03:42:25;23.42;;;4.63;;
46719;SDS011;32452;51.382;-0.002;2022-12-29T03:45:16;24.52;;;5.15;;
46719;SDS011;32452;51.382;-0.002;2022-12-29T03:48:02;26.42;;;6.40;;
46719;SDS011;32452;51.382;-0.002;2022-12-29T03:50:48;39.08;;;5.97;;
46719;SDS011;32452;51.382;-0.002;2022-12-29T03:53:33;25.98;;;4.82;;
46719;SDS011;32452;51.382;-0.002;2022-12-29T03:56:18;23.65;;;6.35;;
46719;SDS011;32452;51.382;-0.002;2022-12-29T03:59:04;27.67;;;4.88;;
46719;SDS011;32452;51.382;-0.002;2022-12-29T04:01:49;33.00;;;8.30;;
46719;SDS011;32452;51.382;-0.002;2022-12-29T04:04:35;19.42;;;4.30;;
46719;SDS011;32452;51.382;-0.002;2022-12-29T04:07:21;22.88;;;4.82;;
46719;SDS011;32452;51.382;-0.002;2022-12-29T04:10:06;28.73;;;4.05;;
46719;SDS011;32452;51.382;-0.002;2022-12-29T04:12:52;29.33;;;5.05;;
46719;SDS011;32452;51.382;-0.002;2022-12-29T04:15:38;35.70;;;5.78;;
46719;SDS011;32452;51.382;-0.002;2022-12-29T04:18:23;30.77;;;6.07;;
46719;SDS011;32452;51.382;-0.002;2022-12-29T04:21:09;37.75;;;7.20;;
46719;SDS011;32452;51.382;-0.002;2022-12-29T04:23:54;33.60;;;5.03;;
46719;SDS011;32452;51.382;-0.002;2022-12-29T04:26:40;24.77;;;5.20;;
46719;SDS011;32452;51.382;-0.002;2022-12-29T04:29:26;30.20;;;4.68;;
46719;SDS011;32452;51.382;-0.002;2022-12-29T04:32:12;30.40;;;7.05;;
46719;SDS011;32452;51.382;-0.002;2022-12-29T04:35:02;27.38;;;5.53;;
46719;SDS011;32452;51.382;-0.002;2022-12-29T04:37:48;23.15;;;3.85;;
46719;SDS011;32452;51.382;-0.002;2022-12-29T04:40:33;23.98;;;4.18;;
46719;SDS011;32452;51.382;-0.002;2022-12-29T04:43:19;17.58;;;4.30;;
46719;SDS011;32452;51.382;-0.002;2022-12-29T04:46:06;25.48;;;4.75;;
46719;SDS011;32452;51.382;-0.002;2022-12-29T04:48:52;20.63;;;5.10;;
46719;SDS011;32452;51.382;-0.002;2022-12-29T04:51:37;20.30;;;4.35;;
46719;SDS011;32452;51.382;-0.002;2022-12-29T04:54:23;29.90;;;5.28;;
46719;SDS011;32452;51.382;-0.002;2022-12-29T04:57:08;31.23;;;7.22;;
46719;SDS011;32452;51.382;-0.002;2022-12-29T04:59:54;35.92;;;6.57;;
46719;SDS011;32452;51.382;-0.002;2022-12-29T05:02:40;25.20;;;4.07;;
46719;SDS011;32452;51.382;-0.002;2022-12-29T05:05:26;28.95;;;4.70;;
46719;SDS011;32452;51.382;-0.002;2022-12-29T05:08:12;26.25;;;5.38;;
46719;SDS011;32452;51.382;-0.002;2022-12-29T05:10:58;24.17;;;5.65;;
46719;SDS011;32452;51.382;-0.002;2022-12-29T05:13:46;25.02;;;5.25;;
46719;SDS011;32452;51.382;-0.002;2022-12-29T05:16:32;27.55;;;6.05;;
46719;SDS011;32452;51.382;-0.002;2022-12-29T05:19:18;35.65;;;6.30;;
46719;SDS011;32452;51.382;-0.002;2022-12-29T05:22:03;21.95;;;4.75;;
46719;SDS011;32452;51.382;-0.002;2022-12-29T05:24:49;35.33;;;6.88;;
46719;SDS011;32452;51.382;-0.002;2022-12-29T05:27:34;31.95;;;5.28;;
46719;SDS011;32452;51.382;-0.002;2022-12-29T05:30:20;30.45;;;5.78;;
46719;SDS011;32452;51.382;-0.002;2022-12-29T05:33:05;26.00;;;5.50;;
46719;SDS011;32452;51.382;-0.002;2022-12-29T05:35:51;28.95;;;5.63;;
46719;SDS011;32452;51.382;-0.002;2022-12-29T05:38:38;38.33;;;7.85;;
46719;SDS011;32452;51.382;-0.002;2022-12-29T05:41:23;24.58;;;4.50;;
46719;SDS011;32452;51.382;-0.002;2022-12-29T05:44:09;19.85;;;4.18;;
46719;SDS011;32452;51.382;-0.002;2022-12-29T05:46:55;33.13;;;6.32;;
46719;SDS011;32452;51.382;-0.002;2022-12-29T05:49:41;17.42;;;3.22;;
46719;SDS011;32452;51.382;-0.002;2022-12-29T05:52:26;19.40;;;4.03;;
46719;SDS011;32452;51.382;-0.002;2022-12-29T05:55:12;20.63;;;3.75;;
46719;SDS011;32452;51.382;-0.002;2022-12-29T05:57:58;16.25;;;4.82;;
46719;SDS011;32452;51.382;-0.002;2022-12-29T06:00:44;18.25;;;3.40;;
46719;SDS011;32452;51.382;-0.002;2022-12-29T06:03:29;14.35;;;2.80;;
46719;SDS011;32452;51.382;-0.002;2022-12-29T06:06:15;18.60;;;3.20;;
46719;SDS011;32452;51.382;-0.002;2022-12-29T06:09:01;19.23;;;2.97;;
46719;SDS011;32452;51.382;-0.002;2022-12-29T06:11:46;18.25;;;4.13;;
46719;SDS011;32452;51.382;-0.002;2022-12-29T06:14:32;15.15;;;2.53;;
46719;SDS011;32452;51.382;-0.002;2022-12-29T06:17:17;14.38;;;1.95;;
46719;SDS011;32452;51.382;-0.002;2022-12-29T06:20:03;8.25;;;2.22;;
46719;SDS011;32452;51.382;-0.002;2022-12-29T06:22:49;12.88;;;2.65;;
46719;SDS011;32452;51.382;-0.002;2022-12-29T06:25:34;13.32;;;2.75;;
46719;SDS011;32452;51.382;-0.002;2022-12-29T06:28:20;14.02;;;2.42;;
46719;SDS011;32452;51.382;-0.002;2022-12-29T06:31:08;14.68;;;2.42;;
46719;SDS011;32452;51.382;-0.002;2022-12-29T06:33:55;14.30;;;2.75;;
46719;SDS011;32452;51.382;-0.002;2022-12-29T06:36:40;10.20;;;2.22;;
46719;SDS011;32452;51.382;-0.002;2022-12-29T06:39:25;11.48;;;2.60;;
46719;SDS011;32452;51.382;-0.002;2022-12-29T06:42:11;14.45;;;3.00;;
46719;SDS011;32452;51.382;-0.002;2022-12-29T06:44:57;11.43;;;1.63;;
46719;SDS011;32452;51.382;-0.002;2022-12-29T06:47:43;12.02;;;2.30;;
46719;SDS011;32452;51.382;-0.002;2022-12-29T06:50:29;8.45;;;1.25;;
46719;SDS011;32452;51.382;-0.002;2022-12-29T06:53:14;8.07;;;1.48;;
46719;SDS011;32452;51.382;-0.002;2022-12-29T06:56:00;8.52;;;1.98;;
46719;SDS011;32452;51.382;-0.002;2022-12-29T06:58:46;13.05;;;1.83;;
46719;SDS011;32452;51.382;-0.002;2022-12-29T07:01:31;5.88;;;1.20;;
46719;SDS011;32452;51.382;-0.002;2022-12-29T07:04:17;6.18;;;1.50;;
46719;SDS011;32452;51.382;-0.002;2022-12-29T07:07:03;6.78;;;1.67;;
46719;SDS011;32452;51.382;-0.002;2022-12-29T07:09:48;4.93;;;1.20;;
46719;SDS011;32452;51.382;-0.002;2022-12-29T07:12:34;4.30;;;1.02;;
46719;SDS011;32452;51.382;-0.002;2022-12-29T07:15:20;5.47;;;1.17;;
46719;SDS011;32452;51.382;-0.002;2022-12-29T07:18:05;4.78;;;1.42;;
46719;SDS011;32452;51.382;-0.002;2022-12-29T07:20:51;10.48;;;2.30;;
46719;SDS011;32452;51.382;-0.002;2022-12-29T07:23:37;9.23;;;1.77;;
46719;SDS011;32452;51.382;-0.002;2022-12-29T07:26:22;8.18;;;1.48;;
46719;SDS011;32452;51.382;-0.002;2022-12-29T07:29:09;8.90;;;1.23;;
46719;SDS011;32452;51.382;-0.002;2022-12-29T07:31:55;7.80;;;1.83;;
46719;SDS011;32452;51.382;-0.002;2022-12-29T07:34:40;6.60;;;1.90;;
46719;SDS011;32452;51.382;-0.002;2022-12-29T07:37:26;5.38;;;1.63;;
46719;SDS011;32452;51.382;-0.002;2022-12-29T07:40:12;5.50;;;1.50;;
46719;SDS011;32452;51.382;-0.002;2022-12-29T07:42:58;5.18;;;1.25;;
46719;SDS011;32452;51.382;-0.002;2022-12-29T07:45:44;3.25;;;0.75;;
46719;SDS011;32452;51.382;-0.002;2022-12-29T07:48:29;10.15;;;1.10;;
46719;SDS011;32452;51.382;-0.002;2022-12-29T07:51:15;8.05;;;1.58;;
46719;SDS011;32452;51.382;-0.002;2022-12-29T07:54:00;9.02;;;1.63;;
46719;SDS011;32452;51.382;-0.002;2022-12-29T07:56:46;5.70;;;1.58;;
46719;SDS011;32452;51.382;-0.002;2022-12-29T07:59:32;10.00;;;1.17;;
46719;SDS011;32452;51.382;-0.002;2022-12-29T08:02:17;8.25;;;1.40;;
46719;SDS011;32452;51.382;-0.002;2022-12-29T08:05:03;11.57;;;2.58;;
46719;SDS011;32452;51.382;-0.002;2022-12-29T08:07:49;4.15;;;0.93;;
46719;SDS011;32452;51.382;-0.002;2022-12-29T08:10:35;9.02;;;1.38;;
46719;SDS011;32452;51.382;-0.002;2022-12-29T08:13:21;9.30;;;1.42;;
46719;SDS011;32452;51.382;-0.002;2022-12-29T08:16:08;6.97;;;1.08;;
46719;SDS011;32452;51.382;-0.002;2022-12-29T08:18:54;5.60;;;0.93;;
46719;SDS011;32452;51.382;-0.002;2022-12-29T08:21:39;5.80;;;1.30;;
46719;SDS011;32452;51.382;-0.002;2022-12-29T08:24:25;4.55;;;0.82;;
46719;SDS011;32452;51.382;-0.002;2022-12-29T08:27:10;5.90;;;1.13;;
46719;SDS011;32452;51.382;-0.002;2022-12-29T08:30:04;5.80;;;1.00;;
46719;SDS011;32452;51.382;-0.002;2022-12-29T08:32:51;7.43;;;1.15;;
46719;SDS011;32452;51.382;-0.002;2022-12-29T08:35:36;10.80;;;1.55;;
46719;SDS011;32452;51.382;-0.002;2022-12-29T08:38:22;7.82;;;1.10;;
46719;SDS011;32452;51.382;-0.002;2022-12-29T08:41:08;7.03;;;1.40;;
46719;SDS011;32452;51.382;-0.002;2022-12-29T08:43:53;5.03;;;1.10;;
46719;SDS011;32452;51.382;-0.002;2022-12-29T08:46:39;8.90;;;1.20;;
46719;SDS011;32452;51.382;-0.002;2022-12-29T08:49:24;6.80;;;1.27;;
46719;SDS011;32452;51.382;-0.002;2022-12-29T08:52:10;12.95;;;1.52;;
46719;SDS011;32452;51.382;-0.002;2022-12-29T08:54:56;5.55;;;1.38;;
46719;SDS011;32452;51.382;-0.002;2022-12-29T08:57:42;23.30;;;3.53;;
46719;SDS011;32452;51.382;-0.002;2022-12-29T09:00:28;2.90;;;1.02;;
46719;SDS011;32452;51.382;-0.002;2022-12-29T09:03:13;3.58;;;1.25;;
46719;SDS011;32452;51.382;-0.002;2022-12-29T09:06:09;4.32;;;0.82;;
46719;SDS011;32452;51.382;-0.002;2022-12-29T09:08:55;10.27;;;2.10;;
46719;SDS011;32452;51.382;-0.002;2022-12-29T09:11:41;8.50;;;2.10;;
46719;SDS011;32452;51.382;-0.002;2022-12-29T09:14:27;6.47;;;1.23;;
46719;SDS011;32452;51.382;-0.002;2022-12-29T09:17:12;11.15;;;2.33;;
46719;SDS011;32452;51.382;-0.002;2022-12-29T09:23:02;9.57;;;1.52;;
46719;SDS011;32452;51.382;-0.002;2022-12-29T09:25:50;4.82;;;1.40;;
46719;SDS011;32452;51.382;-0.002;2022-12-29T09:28:35;6.65;;;1.30;;
46719;SDS011;32452;51.382;-0.002;2022-12-29T09:31:21;7.25;;;1.30;;
46719;SDS011;32452;51.382;-0.002;2022-12-29T09:34:07;6.18;;;1.25;;
46719;SDS011;32452;51.382;-0.002;2022-12-29T09:36:53;10.00;;;1.80;;
46719;SDS011;32452;51.382;-0.002;2022-12-29T09:39:39;5.60;;;1.35;;
46719;SDS011;32452;51.382;-0.002;2022-12-29T09:42:27;8.88;;;1.48;;
46719;SDS011;32452;51.382;-0.002;2022-12-29T09:45:29;5.82;;;1.38;;
46719;SDS011;32452;51.382;-0.002;2022-12-29T09:48:23;7.10;;;1.42;;
46719;SDS011;32452;51.382;-0.002;2022-12-29T09:51:15;11.57;;;1.70;;
46719;SDS011;32452;51.382;-0.002;2022-12-29T09:54:19;8.40;;;1.55;;
46719;SDS011;32452;51.382;-0.002;2022-12-29T09:57:29;5.57;;;1.65;;
46719;SDS011;32452;51.382;-0.002;2022-12-29T10:00:21;6.93;;;1.80;;
46719;SDS011;32452;51.382;-0.002;2022-12-29T10:06:48;5.93;;;1.85;;
46719;SDS011;32452;51.382;-0.002;2022-12-29T10:09:22;8.80;;;1.85;;
46719;SDS011;32452;51.382;-0.002;2022-12-29T10:15:46;5.40;;;1.65;;
46719;SDS011;32452;51.382;-0.002;2022-12-29T10:22:20;4.05;;;1.00;;
46719;SDS011;32452;51.382;-0.002;2022-12-29T10:25:30;5.15;;;1.30;;
46719;SDS011;32452;51.382;-0.002;2022-12-29T10:28:23;8.05;;;1.30;;
46719;SDS011;32452;51.382;-0.002;2022-12-29T10:31:22;8.40;;;1.85;;
46719;SDS011;32452;51.382;-0.002;2022-12-29T10:34:31;3.63;;;1.08;;
46719;SDS011;32452;51.382;-0.002;2022-12-29T10:40:09;2.95;;;0.90;;
46719;SDS011;32452;51.382;-0.002;2022-12-29T10:43:06;8.73;;;1.20;;
46719;SDS011;32452;51.382;-0.002;2022-12-29T10:46:09;6.43;;;0.98;;
46719;SDS011;32452;51.382;-0.002;2022-12-29T10:48:58;7.00;;;1.38;;
46719;SDS011;32452;51.382;-0.002;2022-12-29T10:51:46;6.60;;;1.42;;
46719;SDS011;32452;51.382;-0.002;2022-12-29T10:54:58;5.35;;;1.40;;
46719;SDS011;32452;51.382;-0.002;2022-12-29T10:57:48;9.60;;;1.45;;
46719;SDS011;32452;51.382;-0.002;2022-12-29T11:00:34;5.85;;;1.02;;
46719;SDS011;32452;51.382;-0.002;2022-12-29T11:06:24;7.03;;;0.98;;
46719;SDS011;32452;51.382;-0.002;2022-12-29T11:09:15;3.58;;;0.98;;
46719;SDS011;32452;51.382;-0.002;2022-12-29T11:12:18;4.63;;;0.90;;
46719;SDS011;32452;51.382;-0.002;2022-12-29T11:17:57;4.93;;;1.23;;
46719;SDS011;32452;51.382;-0.002;2022-12-29T11:20:44;4.88;;;2.00;;
46719;SDS011;32452;51.382;-0.002;2022-12-29T11:26:21;11.68;;;2.05;;
46719;SDS011;32452;51.382;-0.002;2022-12-29T11:29:21;7.57;;;2.33;;
46719;SDS011;32452;51.382;-0.002;2022-12-29T11:32:12;7.65;;;2.05;;
46719;SDS011;32452;51.382;-0.002;2022-12-29T11:35:18;10.55;;;1.73;;
46719;SDS011;32452;51.382;-0.002;2022-12-29T11:38:23;5.50;;;1.05;;
46719;SDS011;32452;51.382;-0.002;2022-12-29T11:41:13;7.40;;;1.20;;
46719;SDS011;32452;51.382;-0.002;2022-12-29T11:44:05;5.95;;;1.38;;
46719;SDS011;32452;51.382;-0.002;2022-12-29T11:46:51;8.05;;;1.58;;
46719;SDS011;32452;51.382;-0.002;2022-12-29T11:49:37;7.35;;;2.05;;
46719;SDS011;32452;51.382;-0.002;2022-12-29T11:52:23;11.82;;;2.58;;
46719;SDS011;32452;51.382;-0.002;2022-12-29T11:55:19;11.95;;;2.92;;
46719;SDS011;32452;51.382;-0.002;2022-12-29T11:58:11;14.73;;;4.63;;
46719;SDS011;32452;51.382;-0.002;2022-12-29T12:01:01;12.30;;;3.10;;
46719;SDS011;32452;51.382;-0.002;2022-12-29T12:06:44;15.30;;;3.15;;
46719;SDS011;32452;51.382;-0.002;2022-12-29T12:09:35;12.52;;;2.92;;
46719;SDS011;32452;51.382;-0.002;2022-12-29T12:15:22;12.13;;;2.53;;
46719;SDS011;32452;51.382;-0.002;2022-12-29T12:18:24;14.50;;;3.33;;
46719;SDS011;32452;51.382;-0.002;2022-12-29T12:21:32;12.43;;;2.47;;
46719;SDS011;32452;51.382;-0.002;2022-12-29T12:24:41;14.02;;;3.75;;
46719;SDS011;32452;51.382;-0.002;2022-12-29T12:27:43;14.00;;;3.08;;
46719;SDS011;32452;51.382;-0.002;2022-12-29T12:30:42;19.97;;;3.97;;
46719;SDS011;32452;51.382;-0.002;2022-12-29T12:33:39;13.98;;;2.85;;
46719;SDS011;32452;51.382;-0.002;2022-12-29T12:49:15;12.88;;;3.08;;
46719;SDS011;32452;51.382;-0.002;2022-12-29T12:58:41;11.27;;;3.20;;
46719;SDS011;32452;51.382;-0.002;2022-12-29T13:02:00;13.57;;;2.58;;
46719;SDS011;32452;51.382;-0.002;2022-12-29T13:11:28;15.35;;;2.97;;
46719;SDS011;32452;51.382;-0.002;2022-12-29T13:14:45;15.27;;;3.83;;
46719;SDS011;32452;51.382;-0.002;2022-12-29T13:21:06;16.02;;;3.15;;
46719;SDS011;32452;51.382;-0.002;2022-12-29T13:27:33;12.95;;;3.72;;
46719;SDS011;32452;51.382;-0.002;2022-12-29T13:30:30;13.90;;;2.45;;
46719;SDS011;32452;51.382;-0.002;2022-12-29T13:36:26;12.23;;;2.58;;
46719;SDS011;32452;51.382;-0.002;2022-12-29T13:39:32;11.15;;;3.00;;
46719;SDS011;32452;51.382;-0.002;2022-12-29T13:45:15;12.38;;;3.45;;
46719;SDS011;32452;51.382;-0.002;2022-12-29T13:48:13;14.10;;;3.08;;
46719;SDS011;32452;51.382;-0.002;2022-12-29T13:51:02;18.55;;;2.75;;
46719;SDS011;32452;51.382;-0.002;2022-12-29T13:54:11;17.00;;;3.35;;
46719;SDS011;32452;51.382;-0.002;2022-12-29T13:57:26;14.75;;;4.10;;
46719;SDS011;32452;51.382;-0.002;2022-12-29T14:03:49;12.95;;;2.78;;
46719;SDS011;32452;51.382;-0.002;2022-12-29T14:06:39;10.60;;;2.50;;
46719;SDS011;32452;51.382;-0.002;2022-12-29T14:09:43;14.88;;;1.95;;
46719;SDS011;32452;51.382;-0.002;2022-12-29T14:12:38;11.60;;;1.98;;
46719;SDS011;32452;51.382;-0.002;2022-12-29T14:15:26;16.67;;;3.53;;
46719;SDS011;32452;51.382;-0.002;2022-12-29T14:18:22;12.30;;;2.17;;
46719;SDS011;32452;51.382;-0.002;2022-12-29T14:30:59;10.98;;;2.22;;
46719;SDS011;32452;51.382;-0.002;2022-12-29T14:33:33;15.65;;;2.20;;
46719;SDS011;32452;51.382;-0.002;2022-12-29T14:39:38;17.38;;;2.72;;
46719;SDS011;32452;51.382;-0.002;2022-12-29T14:42:28;13.15;;;2.83;;
46719;SDS011;32452;51.382;-0.002;2022-12-29T14:48:01;10.07;;;2.35;;
46719;SDS011;32452;51.382;-0.002;2022-12-29T14:51:30;11.48;;;2.20;;
46719;SDS011;32452;51.382;-0.002;2022-12-29T15:00:15;9.40;;;2.30;;
46719;SDS011;32452;51.382;-0.002;2022-12-29T15:03:08;16.02;;;2.10;;
46719;SDS011;32452;51.382;-0.002;2022-12-29T15:06:09;12.30;;;2.50;;
46719;SDS011;32452;51.382;-0.002;2022-12-29T15:09:00;10.07;;;2.10;;
46719;SDS011;32452;51.382;-0.002;2022-12-29T15:12:04;7.10;;;1.92;;
46719;SDS011;32452;51.382;-0.002;2022-12-29T15:15:20;13.98;;;2.47;;
46719;SDS011;32452;51.382;-0.002;2022-12-29T15:18:23;8.55;;;2.50;;
46719;SDS011;32452;51.382;-0.002;2022-12-29T15:21:11;13.48;;;2.40;;
46719;SDS011;32452;51.382;-0.002;2022-12-29T15:23:59;16.88;;;2.55;;
46719;SDS011;32452;51.382;-0.002;2022-12-29T15:26:47;13.05;;;2.75;;
46719;SDS011;32452;51.382;-0.002;2022-12-29T15:32:24;9.57;;;2.05;;
46719;SDS011;32452;51.382;-0.002;2022-12-29T15:35:28;13.90;;;2.60;;
46719;SDS011;32452;51.382;-0.002;2022-12-29T15:38:24;10.93;;;2.97;;
46719;SDS011;32452;51.382;-0.002;2022-12-29T15:44:15;14.35;;;2.67;;
46719;SDS011;32452;51.382;-0.002;2022-12-29T15:47:06;11.88;;;2.25;;
46719;SDS011;32452;51.382;-0.002;2022-12-29T15:50:07;10.80;;;2.28;;
46719;SDS011;32452;51.382;-0.002;2022-12-29T15:53:00;13.30;;;2.40;;
46719;SDS011;32452;51.382;-0.002;2022-12-29T15:55:47;10.60;;;2.33;;
46719;SDS011;32452;51.382;-0.002;2022-12-29T15:58:47;11.20;;;2.97;;
46719;SDS011;32452;51.382;-0.002;2022-12-29T16:01:35;15.70;;;3.08;;
46719;SDS011;32452;51.382;-0.002;2022-12-29T16:04:21;17.98;;;3.88;;
46719;SDS011;32452;51.382;-0.002;2022-12-29T16:07:22;14.73;;;3.17;;
46719;SDS011;32452;51.382;-0.002;2022-12-29T16:10:47;13.95;;;3.97;;
46719;SDS011;32452;51.382;-0.002;2022-12-29T16:13:33;19.70;;;3.30;;
46719;SDS011;32452;51.382;-0.002;2022-12-29T16:16:28;10.15;;;2.10;;
46719;SDS011;32452;51.382;-0.002;2022-12-29T16:19:35;17.63;;;2.88;;
46719;SDS011;32452;51.382;-0.002;2022-12-29T16:22:31;14.15;;;3.00;;
46719;SDS011;32452;51.382;-0.002;2022-12-29T16:25:22;13.05;;;2.47;;
46719;SDS011;32452;51.382;-0.002;2022-12-29T16:28:23;10.98;;;2.30;;
46719;SDS011;32452;51.382;-0.002;2022-12-29T16:34:47;12.60;;;3.78;;
46719;SDS011;32452;51.382;-0.002;2022-12-29T16:37:34;11.40;;;2.63;;
46719;SDS011;32452;51.382;-0.002;2022-12-29T16:40:24;17.20;;;2.97;;
46719;SDS011;32452;51.382;-0.002;2022-12-29T16:43:21;18.73;;;2.85;;
46719;SDS011;32452;51.382;-0.002;2022-12-29T16:46:15;16.25;;;2.65;;
46719;SDS011;32452;51.382;-0.002;2022-12-29T16:49:16;16.33;;;3.63;;
46719;SDS011;32452;51.382;-0.002;2022-12-29T16:52:25;12.10;;;2.80;;
46719;SDS011;32452;51.382;-0.002;2022-12-29T16:55:20;9.27;;;2.72;;
46719;SDS011;32452;51.382;-0.002;2022-12-29T16:58:05;14.48;;;2.63;;
46719;SDS011;32452;51.382;-0.002;2022-12-29T17:01:00;12.68;;;2.33;;
46719;SDS011;32452;51.382;-0.002;2022-12-29T17:03:52;17.90;;;2.45;;
46719;SDS011;32452;51.382;-0.002;2022-12-29T17:06:43;16.15;;;3.10;;
46719;SDS011;32452;51.382;-0.002;2022-12-29T17:09:28;14.60;;;3.08;;
46719;SDS011;32452;51.382;-0.002;2022-12-29T17:12:23;15.95;;;2.60;;
46719;SDS011;32452;51.382;-0.002;2022-12-29T17:18:13;15.48;;;3.20;;
46719;SDS011;32452;51.382;-0.002;2022-12-29T17:20:59;13.27;;;2.70;;
46719;SDS011;32452;51.382;-0.002;2022-12-29T17:23:45;15.50;;;2.83;;
46719;SDS011;32452;51.382;-0.002;2022-12-29T17:26:30;16.88;;;3.25;;
46719;SDS011;32452;51.382;-0.002;2022-12-29T17:29:18;13.57;;;2.80;;
46719;SDS011;32452;51.382;-0.002;2022-12-29T17:32:14;11.73;;;3.03;;
46719;SDS011;32452;51.382;-0.002;2022-12-29T17:35:00;12.90;;;2.58;;
46719;SDS011;32452;51.382;-0.002;2022-12-29T17:37:48;16.05;;;3.00;;
46719;SDS011;32452;51.382;-0.002;2022-12-29T17:40:34;14.25;;;2.65;;
46719;SDS011;32452;51.382;-0.002;2022-12-29T17:43:20;9.68;;;2.10;;
46719;SDS011;32452;51.382;-0.002;2022-12-29T17:46:06;10.32;;;2.47;;
46719;SDS011;32452;51.382;-0.002;2022-12-29T17:48:53;15.23;;;2.28;;
46719;SDS011;32452;51.382;-0.002;2022-12-29T17:51:40;15.77;;;3.28;;
46719;SDS011;32452;51.382;-0.002;2022-12-29T17:54:26;15.23;;;2.47;;
46719;SDS011;32452;51.382;-0.002;2022-12-29T17:57:13;8.85;;;1.88;;
46719;SDS011;32452;51.382;-0.002;2022-12-29T17:59:59;13.68;;;2.95;;
46719;SDS011;32452;51.382;-0.002;2022-12-29T18:02:45;13.80;;;2.20;;
46719;SDS011;32452;51.382;-0.002;2022-12-29T18:05:32;12.45;;;2.25;;
46719;SDS011;32452;51.382;-0.002;2022-12-29T18:08:18;13.20;;;2.30;;
46719;SDS011;32452;51.382;-0.002;2022-12-29T18:11:05;12.32;;;3.25;;
46719;SDS011;32452;51.382;-0.002;2022-12-29T18:14:15;9.40;;;3.45;;
46719;SDS011;32452;51.382;-0.002;2022-12-29T18:17:03;11.88;;;2.58;;
46719;SDS011;32452;51.382;-0.002;2022-12-29T18:19:56;15.20;;;2.95;;
46719;SDS011;32452;51.382;-0.002;2022-12-29T18:22:42;13.77;;;2.85;;
46719;SDS011;32452;51.382;-0.002;2022-12-29T18:25:45;14.25;;;2.92;;
46719;SDS011;32452;51.382;-0.002;2022-12-29T18:28:37;10.85;;;1.90;;
46719;SDS011;32452;51.382;-0.002;2022-12-29T18:31:26;11.63;;;2.75;;
46719;SDS011;32452;51.382;-0.002;2022-12-29T18:34:14;14.95;;;2.50;;
46719;SDS011;32452;51.382;-0.002;2022-12-29T18:37:00;18.50;;;2.67;;
46719;SDS011;32452;51.382;-0.002;2022-12-29T18:39:46;17.67;;;3.03;;
46719;SDS011;32452;51.382;-0.002;2022-12-29T18:42:32;17.63;;;3.10;;
46719;SDS011;32452;51.382;-0.002;2022-12-29T18:45:19;11.88;;;3.70;;
46719;SDS011;32452;51.382;-0.002;2022-12-29T18:48:08;9.82;;;2.85;;
46719;SDS011;32452;51.382;-0.002;2022-12-29T18:50:54;18.92;;;3.38;;
46719;SDS011;32452;51.382;-0.002;2022-12-29T18:53:40;10.90;;;3.08;;
46719;SDS011;32452;51.382;-0.002;2022-12-29T18:56:26;13.88;;;2.75;;
46719;SDS011;32452;51.382;-0.002;2022-12-29T18:59:11;14.27;;;2.65;;
46719;SDS011;32452;51.382;-0.002;2022-12-29T19:01:57;14.52;;;3.63;;
46719;SDS011;32452;51.382;-0.002;2022-12-29T19:04:42;14.30;;;2.28;;
46719;SDS011;32452;51.382;-0.002;2022-12-29T19:07:27;19.05;;;2.65;;
46719;SDS011;32452;51.382;-0.002;2022-12-29T19:10:13;14.45;;;3.05;;
46719;SDS011;32452;51.382;-0.002;2022-12-29T19:12:59;20.88;;;2.85;;
46719;SDS011;32452;51.382;-0.002;2022-12-29T19:15:45;11.15;;;2.75;;
46719;SDS011;32452;51.382;-0.002;2022-12-29T19:18:31;16.80;;;4.38;;